Time;durP1;ratioP1;P1;durP2;ratioP2;P2;SDS_P1;SDS_P2;PMS_P1;PMS_P2;Temp;Humidity;BMP_temperature;BMP_pressure;BME280_temperature;BME280_humidity;BME280_pressure;Samples;Min_cycle;Max_cycle;Signal;HPM_P1;HPM_P2
2022/11/22 00:02:50;;;;;;;;;;;;;;;6.70;89.60;98526.63;4935587;29;20054;-76
2022/11/22 00:05:53;;;;;;;12.20;3.63;;;;;;;6.69;89.27;98521.50;4934982;29;19995;-76
2022/11/22 00:08:56;;;;;;;;;;;;;;;6.75;88.12;98515.91;4923513;29;20099;-76
2022/11/22 00:12:00;;;;;;;8.35;3.15;;;;;;;6.74;89.05;98509.06;4935039;29;20009;-76
2022/11/22 00:15:04;;;;;;;7.95;3.22;;;;;;;6.75;89.12;98513.31;4934765;29;20046;-76
2022/11/22 00:18:07;;;;;;;7.78;2.35;;;;;;;6.70;89.42;98508.44;4934676;29;20086;-76
2022/11/22 00:21:10;;;;;;;;;;;;;;;6.68;88.72;98504.28;4935198;29;20179;-76
2022/11/22 00:24:14;;;;;;;9.00;1.75;;;;;;;6.83;88.47;98499.78;4934706;29;19922;-76
2022/11/22 00:27:18;;;;;;;6.00;1.58;;;;;;;6.77;89.70;98497.63;4933726;29;20106;-77
2022/11/22 00:30:21;;;;;;;4.75;2.30;;;;;;;6.73;90.01;98495.25;4921399;29;20102;-76
2022/11/22 00:33:24;;;;;;;4.97;1.80;;;;;;;6.73;89.14;98496.97;4932559;29;20094;-76
2022/11/22 00:36:28;;;;;;;;;;;;;;;6.77;89.52;98495.84;4933396;29;20437;-76
2022/11/22 00:39:31;;;;;;;5.25;1.90;;;;;;;6.84;88.86;98484.09;4933087;29;20379;-76
2022/11/22 00:42:35;;;;;;;6.97;2.35;;;;;;;6.65;90.27;98484.53;4932836;29;20063;-76
2022/11/22 00:45:39;;;;;;;;;;;;;;;6.70;90.76;98473.81;4933451;29;20123;-76
2022/11/22 00:48:43;;;;;;;9.65;2.03;;;;;;;6.63;89.53;98468.22;4934382;29;19929;-76
2022/11/22 00:51:48;;;;;;;;;;;;;;;6.74;89.91;98477.88;4934796;29;20051;-77
2022/11/22 00:54:54;;;;;;;8.38;2.42;;;;;;;6.79;89.75;98474.94;4934515;29;19922;-77
2022/11/22 00:57:57;;;;;;;7.65;3.00;;;;;;;6.79;89.53;98482.75;4934331;29;20046;-76
2022/11/22 01:01:00;;;;;;;6.18;2.40;;;;;;;6.80;90.12;98493.03;4934156;29;20050;-76
2022/11/22 01:04:04;;;;;;;5.38;2.15;;;;;;;6.81;90.30;98486.06;4934147;29;20046;-76
2022/11/22 01:07:09;;;;;;;9.43;2.17;;;;;;;6.99;90.15;98495.19;4934289;29;20050;-76
2022/11/22 01:10:12;;;;;;;4.90;1.88;;;;;;;6.99;89.91;98500.41;4934205;29;20067;-76
2022/11/22 01:13:15;;;;;;;;;;;;;;;7.00;90.22;98504.66;4934542;29;20047;-76
2022/11/22 01:16:18;;;;;;;15.68;5.30;;;;;;;6.94;90.12;98511.09;4934255;29;19921;-76
2022/11/22 01:19:21;;;;;;;8.80;2.15;;;;;;;6.63;91.29;98512.34;4934118;29;20629;-76
2022/11/22 01:22:25;;;;;;;5.95;1.75;;;;;;;6.83;91.34;98504.97;4934573;29;20525;-77
2022/11/22 01:25:28;;;;;;;;;;;;;;;6.91;90.67;98507.88;4934640;29;20194;-77
2022/11/22 01:28:32;;;;;;;8.60;3.10;;;;;;;6.81;90.76;98506.84;4934038;29;19946;-77
2022/11/22 01:31:35;;;;;;;6.60;2.30;;;;;;;6.84;90.46;98509.25;4934201;29;20128;-77
2022/11/22 01:34:39;;;;;;;;;;;;;;;6.84;91.01;98509.25;4934244;29;20131;-77
2022/11/22 01:37:42;;;;;;;5.13;2.05;;;;;;;6.84;91.09;98511.84;4934356;29;20054;-77
2022/11/22 01:40:48;;;;;;;7.15;2.13;;;;;;;6.95;91.15;98517.13;4937626;29;20051;-76
2022/11/22 01:43:52;;;;;;;9.68;2.45;;;;;;;6.88;90.83;98518.47;4937272;29;20099;-77
2022/11/22 01:47:10;;;;;;;8.48;2.00;;;;;;;6.89;91.09;98514.94;4925749;29;20090;-76
2022/11/22 01:50:16;;;;;;;5.70;2.08;;;;;;;6.91;91.24;98518.28;4937432;29;20090;-77
2022/11/22 01:53:32;;;;;;;6.35;1.60;;;;;;;7.01;91.04;98521.88;4937045;29;20074;-76
2022/11/22 01:56:37;;;;;;;7.60;1.67;;;;;;;6.94;91.47;98541.44;4936545;29;20094;-76
2022/11/22 01:59:45;;;;;;;6.13;1.45;;;;;;;7.01;91.19;98544.44;4936833;29;20413;-76
2022/11/22 02:02:54;;;;;;;6.32;1.20;;;;;;;7.01;90.87;98555.66;4936899;29;20054;-76
2022/11/22 02:05:58;;;;;;;7.63;2.70;;;;;;;6.96;90.99;98558.59;4936544;29;20506;-76
2022/11/22 02:09:11;;;;;;;6.55;1.85;;;;;;;6.90;91.05;98558.19;4936728;29;20596;-76
2022/11/22 02:12:17;;;;;;;6.10;1.45;;;;;;;6.92;91.16;98557.16;4936710;29;20103;-76
2022/11/22 02:15:20;;;;;;;3.78;1.50;;;;;;;6.76;91.39;98553.91;4936833;29;20058;-76
2022/11/22 02:18:24;;;;;;;4.20;1.52;;;;;;;6.78;91.71;98554.66;4936755;29;20110;-77
2022/11/22 02:21:28;;;;;;;7.28;1.38;;;;;;;6.73;91.63;98546.31;4937191;29;20138;-77
2022/11/22 02:24:39;;;;;;;4.20;1.10;;;;;;;6.74;91.59;98554.03;4936793;29;20058;-77
2022/11/22 02:27:42;;;;;;;8.32;1.23;;;;;;;6.60;91.68;98556.72;4936563;29;20046;-76
2022/11/22 02:30:46;;;;;;;4.10;1.30;;;;;;;6.70;91.11;98557.78;4936569;29;20110;-76
2022/11/22 02:33:49;;;;;;;5.38;0.90;;;;;;;6.65;91.45;98565.03;4936877;29;20457;-76
2022/11/22 02:36:53;;;;;;;;;;;;;;;6.66;91.11;98551.09;4937024;29;20566;-76
2022/11/22 02:40:12;;;;;;;4.80;0.80;;;;;;;6.71;90.40;98548.22;4936468;29;19941;-76
2022/11/22 02:43:22;;;;;;;6.78;1.98;;;;;;;6.79;90.32;98545.91;4936336;29;20050;-75
2022/11/22 02:46:26;;;;;;;3.38;0.95;;;;;;;6.87;90.06;98546.22;4924549;29;20043;-76
2022/11/22 02:49:30;;;;;;;3.10;0.77;;;;;;;6.63;90.46;98569.50;4934501;29;20047;-76
2022/11/22 02:52:33;;;;;;;3.70;0.90;;;;;;;6.50;90.92;98566.88;4936269;29;20422;-75
2022/11/22 02:55:37;;;;;;;1.73;0.52;;;;;;;6.58;90.47;98569.00;4936232;29;20050;-75
2022/11/22 02:58:42;;;;;;;4.55;0.93;;;;;;;6.43;90.91;98564.81;4936131;29;20078;-75
2022/11/22 03:01:47;;;;;;;2.80;0.70;;;;;;;6.48;90.56;98586.94;4935923;29;20103;-75
2022/11/22 03:04:50;;;;;;;4.43;1.00;;;;;;;6.56;90.88;98580.41;4935986;29;20114;-74
2022/11/22 03:07:53;;;;;;;2.10;0.73;;;;;;;6.41;91.63;98587.44;4935827;29;20102;-74
2022/11/22 03:10:57;;;;;;;3.67;0.70;;;;;;;6.34;92.41;98581.81;4935908;29;20050;-75
2022/11/22 03:14:04;;;;;;;5.32;1.10;;;;;;;6.48;91.78;98588.72;4935837;29;20102;-76
2022/11/22 03:17:07;;;;;;;;;;;;;;;6.40;92.10;98580.59;4936051;29;20043;-76
2022/11/22 03:20:10;;;;;;;4.28;1.00;;;;;;;6.24;92.32;98575.56;4935765;29;20001;-76
2022/11/22 03:23:13;;;;;;;;;;;;;;;6.19;92.71;98581.09;4935881;29;20067;-76
2022/11/22 03:26:17;;;;;;;4.00;1.02;;;;;;;5.99;93.74;98603.09;4935282;29;19921;-76
2022/11/22 03:29:20;;;;;;;3.67;0.90;;;;;;;6.06;93.63;98613.91;4935299;29;20095;-76
2022/11/22 03:32:26;;;;;;;4.05;1.00;;;;;;;6.14;92.91;98614.28;4934678;29;20568;-76
2022/11/22 03:35:30;;;;;;;3.10;0.75;;;;;;;6.20;92.33;98613.88;4935306;29;20139;-76
2022/11/22 03:38:34;;;;;;;3.10;0.60;;;;;;;6.27;91.88;98617.72;4933858;29;20110;-76
2022/11/22 03:41:38;;;;;;;2.90;0.77;;;;;;;6.31;91.37;98618.34;4933626;29;20429;-76
2022/11/22 03:44:41;;;;;;;;;;;;;;;6.33;90.75;98607.88;4934019;29;20078;-75
2022/11/22 03:47:44;;;;;;;3.53;0.98;;;;;;;6.40;90.56;98601.34;4933834;29;20077;-76
2022/11/22 03:50:47;;;;;;;;;;;;;;;6.33;90.09;98600.09;4922630;29;20383;-76
2022/11/22 03:53:50;;;;;;;5.57;1.20;;;;;;;6.24;90.41;98610.13;4933945;29;19922;-76
2022/11/22 03:56:54;;;;;;;3.55;0.70;;;;;;;6.20;90.60;98616.47;4934899;29;20051;-76
2022/11/22 03:59:57;;;;;;;5.95;0.98;;;;;;;6.27;89.68;98612.53;4933172;29;20114;-76
2022/11/22 04:03:01;;;;;;;3.00;0.80;;;;;;;6.10;90.20;98618.00;4933458;29;20512;-76
2022/11/22 04:06:04;;;;;;;;;;;;;;;6.17;89.50;98621.84;4934056;29;20047;-76
2022/11/22 04:09:07;;;;;;;2.70;0.80;;;;;;;6.04;89.75;98621.00;4933331;29;19925;-76
2022/11/22 04:12:10;;;;;;;5.53;1.00;;;;;;;5.89;90.23;98614.16;4933620;29;20074;-76
2022/11/22 04:15:14;;;;;;;;;;;;;;;5.92;90.07;98621.72;4935338;29;20042;-76
2022/11/22 04:18:17;;;;;;;4.05;0.77;;;;;;;5.82;90.37;98617.13;4935092;29;20013;-76
2022/11/22 04:21:32;;;;;;;6.85;1.02;;;;;;;5.75;89.78;98612.44;4934795;29;20465;-76
2022/11/22 04:28:01;;;;;;;11.05;4.00;;;;;;;5.74;89.58;98608.16;4934564;29;20100;-76
2022/11/22 04:34:27;;;;;;;10.82;4.72;;;;;;;5.56;89.23;98612.75;4945416;29;20145;-75
2022/11/22 04:37:30;;;;;;;;;;;;;;;5.58;89.22;98616.06;4953316;29;20089;-76
2022/11/22 04:40:34;;;;;;;7.25;1.77;;;;;;;5.55;89.45;98618.84;4953353;29;19925;-75
2022/11/22 04:46:59;;;;;;;10.05;5.80;;;;;;;5.48;89.67;98604.59;4953112;29;20589;-76
2022/11/22 04:52:52;;;;;;;9.35;2.20;;;;;;;5.44;88.39;98616.09;4945659;29;20098;-74
2022/11/22 04:53:29;;;;;;;3.05;0.90;;;;;;;5.41;88.83;98629.25;4933896;29;20070;-74
2022/11/22 04:56:32;;;;;;;5.38;1.17;;;;;;;5.34;89.04;98628.78;4933937;29;20592;-76
2022/11/22 04:59:36;;;;;;;6.30;1.80;;;;;;;5.36;88.26;98635.56;4930728;29;20114;-76
2022/11/22 05:02:39;;;;;;;3.10;0.90;;;;;;;5.28;88.26;98642.94;4928936;29;20070;-76
2022/11/22 05:05:43;;;;;;;;;;;;;;;5.43;88.14;98650.72;4936957;29;20212;-75
2022/11/22 05:08:47;;;;;;;8.07;1.60;;;;;;;5.23;88.15;98654.50;4940991;29;19925;-78
2022/11/22 05:11:50;;;;;;;7.70;1.33;;;;;;;5.30;87.66;98656.66;4935950;29;20050;-76
2022/11/22 05:14:53;;;;;;;4.30;1.75;;;;;;;5.46;87.11;98659.16;4952625;29;20425;-78
2022/11/22 05:17:57;;;;;;;;;;;;;;;5.37;87.28;98662.28;4928819;29;20277;-80
2022/11/22 05:21:09;;;;;;;5.03;1.00;;;;;;;5.56;86.91;98672.38;4944346;29;20304;-77
2022/11/22 05:24:12;;;;;;;4.65;0.80;;;;;;;5.49;86.86;98678.88;4952118;29;20093;-73
2022/11/22 05:27:16;;;;;;;;;;;;;;;5.51;86.83;98677.00;4937420;29;20418;-75
2022/11/22 05:30:20;;;;;;;3.33;0.80;;;;;;;5.42;87.29;98674.97;4920576;29;19998;-73
2022/11/22 05:33:24;;;;;;;2.30;0.70;;;;;;;5.56;87.04;98682.75;4932841;29;20114;-73
2022/11/22 05:36:29;;;;;;;;;;;;;;;5.41;87.58;98683.69;4933934;29;20050;-73
2022/11/22 05:39:38;;;;;;;4.18;2.60;;;;;;;5.44;87.76;98681.72;4933399;29;19970;-74
2022/11/22 05:42:42;;;;;;;12.02;6.25;;;;;;;5.47;88.44;98675.53;4933451;29;20066;-80
2022/11/22 05:45:45;;;;;;;5.20;1.88;;;;;;;5.53;87.75;98680.34;4925023;29;20407;-75
2022/11/22 05:48:48;;;;;;;;;;;;;;;5.53;87.82;98680.34;4929457;29;20107;-76
2022/11/22 05:51:52;;;;;;;3.83;1.00;;;;;;;5.54;88.00;98684.59;4928831;29;19921;-80
2022/11/22 05:54:57;;;;;;;2.75;0.70;;;;;;;5.29;88.58;98680.88;4929892;29;20094;-87
2022/11/22 05:58:01;;;;;;;3.03;1.00;;;;;;;5.39;88.59;98690.69;4932075;29;20560;-79
2022/11/22 06:01:30;;;;;;;3.67;1.70;;;;;;;5.26;88.78;98700.97;4931209;29;20055;-76
2022/11/22 06:04:33;;;;;;;4.72;1.08;;;;;;;5.27;88.61;98694.88;4930376;29;20086;-76
2022/11/22 06:07:36;;;;;;;;;;;;;;;5.40;87.56;98713.94;4931034;29;20050;-75
2022/11/22 06:10:40;;;;;;;5.03;1.48;;;;;;;5.25;87.61;98726.06;4932831;29;20011;-76
2022/11/22 06:13:44;;;;;;;;;;;;;;;5.18;88.27;98735.13;4933393;29;20477;-76
2022/11/22 06:16:49;;;;;;;;;;;;;;;5.23;88.36;98738.28;4947672;29;19921;-76
2022/11/22 06:19:52;;;;;;;3.80;1.13;;;;;;;5.25;88.13;98746.78;4951091;29;20060;-76
2022/11/22 06:22:57;;;;;;;8.48;1.20;;;;;;;5.39;87.47;98751.13;4951220;29;20041;-76
2022/11/22 06:26:04;;;;;;;3.25;0.90;;;;;;;5.38;87.54;98754.66;4950138;28;20049;-76
2022/11/22 06:29:07;;;;;;;4.95;1.40;;;;;;;5.29;87.65;98757.78;4951340;29;20105;-76
2022/11/22 06:32:12;;;;;;;4.13;1.75;;;;;;;5.27;89.02;98765.69;4932109;29;20113;-72
2022/11/22 06:35:16;;;;;;;7.80;1.73;;;;;;;5.39;88.45;98773.63;4932423;29;20078;-76
2022/11/22 06:38:19;;;;;;;;;;;;;;;5.57;87.17;98777.75;4932763;29;20078;-76
2022/11/22 06:41:25;;;;;;;4.30;1.70;;;;;;;5.40;87.96;98773.56;4931802;29;19921;-76
2022/11/22 06:44:28;;;;;;;5.65;1.10;;;;;;;5.69;86.98;98777.00;4931041;29;20043;-76
2022/11/22 06:47:58;;;;;;;;;;;;;;;5.45;87.98;98784.47;4931673;29;20525;-76
2022/11/22 06:51:03;;;;;;;4.13;1.00;;;;;;;5.54;87.67;98788.28;4932138;29;20046;-77
2022/11/22 06:54:12;;;;;;;5.82;1.95;;;;;;;5.63;87.57;98792.09;4930485;29;20046;-76
2022/11/22 06:57:16;;;;;;;11.57;6.78;;;;;;;5.69;87.22;98797.75;4930527;29;20049;-77
2022/11/22 07:00:19;;;;;;;9.23;4.43;;;;;;;5.63;87.56;98787.75;4930141;29;20560;-76
2022/11/22 07:03:24;;;;;;;10.68;4.10;;;;;;;5.59;88.03;98796.63;4929558;29;20088;-76
2022/11/22 07:06:30;;;;;;;8.20;3.10;;;;;;;5.61;88.31;98805.13;4929477;29;20042;-76
2022/11/22 07:09:34;;;;;;;6.57;3.28;;;;;;;5.59;88.81;98809.59;4931003;29;20046;-76
2022/11/22 07:12:37;;;;;;;8.00;2.60;;;;;;;5.59;88.57;98807.00;4930819;29;20126;-76
2022/11/22 07:15:41;;;;;;;7.72;2.85;;;;;;;5.73;88.25;98809.59;4931634;29;20564;-76
2022/11/22 07:18:45;;;;;;;;;;;;;;;5.77;88.59;98816.25;4932365;29;20138;-76
2022/11/22 07:21:48;;;;;;;9.20;2.90;;;;;;;5.70;88.88;98809.78;4931339;29;20151;-75
2022/11/22 07:24:52;;;;;;;8.13;2.63;;;;;;;5.65;89.51;98808.38;4930900;29;20470;-76
2022/11/22 07:27:55;;;;;;;;;;;;;;;5.61;89.36;98810.31;4943668;29;20143;-75
2022/11/22 07:31:01;;;;;;;8.25;1.90;;;;;;;5.72;89.35;98818.31;4949318;29;19998;-74
2022/11/22 07:34:04;;;;;;;8.10;2.42;;;;;;;5.74;89.27;98820.81;4938423;29;20174;-78
2022/11/22 07:37:07;;;;;;;;;;;;;;;5.81;88.86;98827.31;4950576;28;20436;-73
2022/11/22 07:40:12;;;;;;;5.32;1.58;;;;;;;5.50;90.80;98825.69;4950648;29;19925;-71
2022/11/22 07:43:15;;;;;;;8.48;3.60;;;;;;;5.50;93.53;98823.09;4927243;29;20493;-72
2022/11/22 07:46:20;;;;;;;;;;;;;;;5.46;92.09;98822.44;4927921;29;20147;-72
2022/11/22 07:49:23;;;;;;;5.28;1.33;;;;;;;5.18;93.67;98827.56;4941566;29;19925;-73
2022/11/22 07:52:27;;;;;;;4.90;1.40;;;;;;;5.09;93.98;98828.91;4941768;29;20094;-73
2022/11/22 07:55:30;;;;;;;;;;;;;;;5.12;94.57;98823.56;4947509;29;20535;-77
2022/11/22 07:58:34;;;;;;;5.40;1.20;;;;;;;5.55;92.09;98821.06;4945811;29;20005;-78
2022/11/22 08:01:37;;;;;;;7.22;1.77;;;;;;;5.77;90.44;98831.81;4932731;29;20089;-78
2022/11/22 08:04:41;;;;;;;;;;;;;;;5.84;89.99;98840.09;4930631;29;20049;-77
2022/11/22 08:07:49;;;;;;;7.90;1.55;;;;;;;5.82;90.37;98840.19;4949275;29;19941;-77
2022/11/22 08:10:53;;;;;;;4.30;1.55;;;;;;;5.97;89.50;98853.22;4936033;29;20461;-77
2022/11/22 08:13:56;;;;;;;;;;;;;;;5.88;89.78;98843.34;4930706;29;20537;-77
2022/11/22 08:16:59;;;;;;;11.13;4.82;;;;;;;5.97;89.84;98843.66;4931014;29;20285;-77
2022/11/22 08:20:04;;;;;;;6.45;2.05;;;;;;;5.82;90.29;98845.38;4930923;29;20144;-77
2022/11/22 08:23:08;;;;;;;9.85;2.38;;;;;;;5.84;90.69;98842.69;4930399;29;20533;-75
2022/11/22 08:26:13;;;;;;;;;;;;;;;5.81;90.80;98846.31;4930483;29;20585;-78
2022/11/22 08:33:41;;;;;;;5.43;1.40;;;;;;;5.86;90.88;98852.97;4883022;29;20809;-78
2022/11/22 08:36:44;;;;;;;5.65;1.70;;;;;;;5.83;91.21;98851.38;4929742;29;20565;-78
2022/11/22 08:39:48;;;;;;;;;;;;;;;5.76;90.99;98861.28;4938421;29;20118;-78
2022/11/22 08:42:55;;;;;;;6.88;1.25;;;;;;;5.83;90.79;98864.34;4947845;29;19922;-78
2022/11/22 08:45:58;;;;;;;9.57;2.88;;;;;;;5.70;91.68;98861.66;4947492;29;20137;-77
2022/11/22 08:49:05;;;;;;;10.98;2.17;;;;;;;5.65;91.77;98873.22;4939166;29;20054;-78
2022/11/22 08:52:08;;;;;;;11.38;3.03;;;;;;;5.66;91.58;98878.31;4953449;29;20045;-78
2022/11/22 08:55:12;;;;;;;9.23;2.20;;;;;;;5.85;91.08;98885.84;4932787;29;20054;-78
2022/11/22 08:58:15;;;;;;;;;;;;;;;5.85;90.92;98890.22;4933580;29;20051;-78
2022/11/22 09:01:20;;;;;;;6.57;1.48;;;;;;;5.74;91.89;98894.28;4933729;29;19977;-78
2022/11/22 09:04:23;;;;;;;7.88;2.25;;;;;;;5.75;91.40;98898.53;4933557;29;20139;-78
2022/11/22 09:07:28;;;;;;;11.63;1.95;;;;;;;5.93;90.95;98898.41;4939807;29;20135;-78
2022/11/22 09:10:32;;;;;;;8.77;1.80;;;;;;;5.90;90.75;98901.13;4941638;29;20062;-78
2022/11/22 09:13:35;;;;;;;7.20;1.90;;;;;;;5.91;90.08;98902.81;4952990;29;20051;-79
2022/11/22 09:16:41;;;;;;;6.30;1.70;;;;;;;5.87;89.82;98898.72;4952382;29;20527;-79
2022/11/22 09:19:45;;;;;;;5.75;1.38;;;;;;;5.77;89.90;98904.44;4952198;29;20061;-78
2022/11/22 09:22:48;;;;;;;;;;;;;;;6.01;89.20;98903.97;4950353;29;20110;-78
2022/11/22 09:26:05;;;;;;;10.52;2.45;;;;;;;6.12;88.79;98893.78;4950826;29;19979;-78
2022/11/22 09:29:09;;;;;;;6.70;1.48;;;;;;;6.16;88.37;98895.28;4950197;29;20102;-78
2022/11/22 09:32:12;;;;;;;;;;;;;;;6.19;82.31;98896.84;4950803;28;20050;-78
2022/11/22 09:35:18;;;;;;;10.48;1.63;;;;;;;6.39;77.73;98885.25;4952134;29;19921;-78
2022/11/22 09:38:22;;;;;;;6.70;1.42;;;;;;;6.44;83.56;98878.00;4956464;29;20094;-78
2022/11/22 09:41:50;;;;;;;6.47;1.40;;;;;;;6.39;79.20;98873.13;4956881;29;20144;-78
2022/11/22 09:45:11;;;;;;;5.75;1.40;;;;;;;6.46;81.88;98876.16;4956622;29;20098;-80
2022/11/22 09:48:21;;;;;;;9.70;1.70;;;;;;;6.44;81.50;98865.03;4933580;29;20413;-77
2022/11/22 09:51:36;;;;;;;11.63;1.63;;;;;;;6.44;85.33;98865.03;4955304;29;20054;-78
2022/11/22 09:54:44;;;;;;;9.80;2.03;;;;;;;6.45;80.19;98858.94;4956160;29;20205;-78
2022/11/22 09:57:57;;;;;;;9.85;2.22;;;;;;;6.59;81.79;98855.47;4956208;29;20183;-78
2022/11/22 10:01:10;;;;;;;7.50;2.60;;;;;;;6.66;81.57;98849.78;4956611;29;20050;-78
2022/11/22 10:04:26;;;;;;;5.07;1.30;;;;;;;6.74;82.89;98854.50;4955410;29;20302;-78
2022/11/22 10:07:42;;;;;;;10.77;4.38;;;;;;;6.77;78.45;98859.50;4955055;29;20094;-78
2022/11/22 10:10:48;;;;;;;12.93;2.85;;;;;;;7.05;76.41;98860.34;4955169;29;20050;-78
2022/11/22 10:14:02;;;;;;;10.02;1.85;;;;;;;7.04;80.59;98854.31;4955213;29;20129;-78
2022/11/22 10:17:05;;;;;;;;;;;;;;;7.17;78.77;98857.78;4955249;29;20141;-76
2022/11/22 10:20:20;;;;;;;11.00;2.17;;;;;;;7.24;73.72;98858.22;4955851;29;19921;-76
2022/11/22 10:23:25;;;;;;;7.10;2.38;;;;;;;7.42;72.79;98845.78;4955930;29;20098;-76
2022/11/22 10:26:34;;;;;;;9.85;2.20;;;;;;;7.50;71.36;98848.72;4943938;29;20534;-76
2022/11/22 10:30:04;;;;;;;12.75;2.65;;;;;;;7.56;72.07;98848.31;4955684;29;20053;-75
2022/11/22 10:33:24;;;;;;;17.00;6.85;;;;;;;7.69;71.49;98843.94;4955742;28;20143;-75
2022/11/22 10:36:33;;;;;;;9.93;2.63;;;;;;;7.73;70.91;98846.34;4931766;29;20111;-76
2022/11/22 10:39:55;;;;;;;13.95;5.05;;;;;;;7.77;71.79;98840.00;4931121;29;20082;-76
2022/11/22 10:43:19;;;;;;;13.40;4.55;;;;;;;7.88;71.92;98830.53;4931551;29;20525;-76
2022/11/22 10:46:44;;;;;;;7.18;1.55;;;;;;;7.78;70.86;98826.03;4932297;29;20478;-76
2022/11/22 10:50:02;;;;;;;12.77;3.25;;;;;;;7.65;70.78;98813.84;4931193;29;20070;-78
2022/11/22 10:53:08;;;;;;;7.78;1.63;;;;;;;7.68;71.70;98811.03;4931792;29;20146;-76
2022/11/22 10:56:37;;;;;;;6.43;2.05;;;;;;;7.83;71.05;98805.75;4931560;29;20045;-76
2022/11/22 11:00:03;;;;;;;9.18;2.22;;;;;;;7.93;72.49;98809.38;4931125;29;20058;-76
2022/11/22 11:03:31;;;;;;;19.65;9.50;;;;;;;7.95;72.45;98815.31;4931679;29;20077;-76
2022/11/22 11:06:57;;;;;;;10.55;2.42;;;;;;;7.92;71.46;98823.34;4929628;29;20050;-77
2022/11/22 11:10:04;;;;;;;12.07;3.08;;;;;;;7.87;72.84;98812.41;4931551;29;20049;-75
2022/11/22 11:13:25;;;;;;;8.25;2.10;;;;;;;7.91;72.28;98822.53;4931722;29;20050;-75
2022/11/22 11:17:18;;;;;;;5.95;1.48;;;;;;;7.80;72.01;98818.97;4930767;29;20066;-76
2022/11/22 11:20:27;;;;;;;7.88;1.30;;;;;;;7.76;71.54;98807.13;4949591;29;20531;-75
2022/11/22 11:24:20;;;;;;;10.80;2.53;;;;;;;7.77;71.88;98808.78;4949261;29;20591;-76
2022/11/22 11:27:29;;;;;;;5.85;1.92;;;;;;;7.89;72.06;98813.16;4948897;29;20046;-75
2022/11/22 11:30:47;;;;;;;3.92;1.33;;;;;;;8.03;71.90;98813.00;4949469;29;20119;-75
2022/11/22 11:33:51;;;;;;;6.95;2.08;;;;;;;8.03;70.37;98807.81;4933019;29;20102;-77
2022/11/22 11:36:56;;;;;;;6.88;1.00;;;;;;;8.08;69.62;98797.09;4935582;29;20175;-77
2022/11/22 11:40:00;;;;;;;6.18;1.25;;;;;;;8.06;70.40;98796.34;4935377;29;20119;-77
2022/11/22 11:43:19;;;;;;;6.47;1.10;;;;;;;8.24;69.11;98797.69;4935583;29;20080;-77
2022/11/22 11:46:28;;;;;;;5.43;1.45;;;;;;;8.07;69.18;98788.47;4935158;29;20521;-77
2022/11/22 11:49:36;;;;;;;5.97;1.33;;;;;;;8.01;68.98;98801.91;4923474;29;20565;-77
2022/11/22 11:52:47;;;;;;;5.63;1.23;;;;;;;8.02;69.34;98798.34;4923545;29;20055;-77
2022/11/22 11:55:51;;;;;;;6.15;1.42;;;;;;;8.03;69.96;98800.00;4935096;29;20042;-77
2022/11/22 11:58:56;;;;;;;3.83;1.10;;;;;;;7.96;69.85;98793.56;4935296;29;20110;-77
2022/11/22 12:02:12;;;;;;;5.45;1.17;;;;;;;7.95;69.75;98799.72;4935129;29;20042;-77
2022/11/22 12:05:15;;;;;;;6.68;1.42;;;;;;;7.83;70.54;98808.34;4935069;29;20094;-77
2022/11/22 12:08:31;;;;;;;;;;;;;;;7.88;70.22;98806.25;4935195;29;20050;-77
2022/11/22 12:11:46;;;;;;;6.22;1.27;;;;;;;7.90;71.07;98804.38;4934928;29;19921;-77
2022/11/22 12:15:00;;;;;;;9.38;2.25;;;;;;;7.85;71.04;98806.50;4934910;29;20054;-77
2022/11/22 12:18:25;;;;;;;6.68;1.90;;;;;;;7.78;71.26;98806.06;4934905;29;20094;-77
2022/11/22 12:21:45;;;;;;;5.72;0.95;;;;;;;7.87;70.36;98794.19;4934917;29;20124;-77
2022/11/22 12:25:05;;;;;;;8.05;2.70;;;;;;;7.88;70.59;98799.31;4933107;29;20101;-77
2022/11/22 12:28:26;;;;;;;4.65;1.00;;;;;;;7.98;70.62;98786.50;4933869;29;20102;-77
2022/11/22 12:32:01;;;;;;;4.18;1.13;;;;;;;8.00;70.52;98799.38;4934405;29;20094;-77
2022/11/22 12:35:13;;;;;;;9.73;1.25;;;;;;;8.05;70.80;98792.09;4934275;29;20112;-77
2022/11/22 12:38:20;;;;;;;6.22;1.08;;;;;;;8.05;70.55;98782.50;4934060;29;20047;-77
2022/11/22 12:41:27;;;;;;;6.75;0.80;;;;;;;8.04;70.49;98788.66;4947243;29;20050;-77
2022/11/22 12:44:37;;;;;;;6.53;1.00;;;;;;;7.93;70.86;98786.78;4946108;29;20042;-77
2022/11/22 12:47:44;;;;;;;5.60;1.23;;;;;;;8.04;70.73;98780.00;4949603;29;20054;-76
2022/11/22 12:51:32;;;;;;;8.27;1.92;;;;;;;8.10;70.94;98793.44;4949208;29;20597;-76
2022/11/22 12:54:59;;;;;;;5.88;1.20;;;;;;;8.13;70.81;98785.41;4938130;29;20091;-74
2022/11/22 12:58:29;;;;;;;5.22;1.40;;;;;;;8.31;70.55;98798.09;4934790;29;20167;-74
2022/11/22 13:01:35;;;;;;;6.53;1.55;;;;;;;8.49;70.13;98785.56;4936283;29;20094;-75
2022/11/22 13:04:58;;;;;;;5.63;1.02;;;;;;;8.30;71.32;98791.22;4932565;29;20574;-76
2022/11/22 13:09:15;;;;;;;4.78;1.20;;;;;;;8.27;71.76;98801.84;4936728;29;20042;-76
2022/11/22 13:12:40;;;;;;;4.97;1.77;;;;;;;8.33;71.91;98791.81;4951378;29;20054;-77
2022/11/22 13:15:48;;;;;;;7.82;2.28;;;;;;;8.20;72.72;98800.59;4944422;28;20066;-77
2022/11/22 13:18:51;;;;;;;7.45;2.88;;;;;;;8.19;72.78;98788.53;4928200;29;20135;-74
2022/11/22 13:22:00;;;;;;;7.03;1.52;;;;;;;8.15;72.69;98788.75;4931570;29;20767;-77
2022/11/22 13:25:37;;;;;;;7.47;1.88;;;;;;;8.22;72.31;98777.91;4947566;29;20424;-76
2022/11/22 13:28:42;;;;;;;4.53;1.20;;;;;;;8.05;74.06;98786.88;4948932;29;20453;-78
2022/11/22 13:32:05;;;;;;;5.60;1.42;;;;;;;7.92;74.41;98781.72;4948457;29;20057;-77
2022/11/22 13:35:12;;;;;;;6.72;1.30;;;;;;;7.82;74.85;98780.69;4951870;28;20083;-78
2022/11/22 13:38:17;;;;;;;6.55;1.30;;;;;;;7.84;75.77;98784.00;4953343;29;20034;-78
2022/11/22 13:41:35;;;;;;;9.38;3.95;;;;;;;7.86;76.01;98782.13;4953797;29;20101;-79
2022/11/22 13:44:50;;;;;;;3.17;0.95;;;;;;;7.83;76.30;98782.34;4953425;29;20512;-78
2022/11/22 13:47:53;;;;;;;4.75;1.13;;;;;;;7.85;76.52;98780.47;4953936;29;20058;-78
2022/11/22 13:51:01;;;;;;;5.13;1.23;;;;;;;7.85;76.81;98770.88;4953390;29;20571;-79
2022/11/22 13:54:35;;;;;;;3.58;1.15;;;;;;;7.86;76.08;98771.72;4952980;29;20190;-79
2022/11/22 13:57:40;;;;;;;4.35;0.90;;;;;;;7.93;76.54;98767.75;4952574;29;20129;-80
2022/11/22 14:00:43;;;;;;;8.35;1.27;;;;;;;7.95;76.40;98765.88;4941174;29;20054;-80
2022/11/22 14:03:49;;;;;;;3.28;1.02;;;;;;;7.93;76.30;98762.53;4953090;29;20098;-80
2022/11/22 14:07:08;;;;;;;4.47;2.30;;;;;;;7.94;76.48;98764.19;4952679;29;20098;-77
2022/11/22 14:10:45;;;;;;;5.10;1.08;;;;;;;7.91;76.36;98759.19;4949493;29;21830;-77
2022/11/22 14:13:59;;;;;;;7.40;2.42;;;;;;;7.86;76.61;98771.72;4932345;29;20054;-76
2022/11/22 14:17:05;;;;;;;5.47;1.50;;;;;;;7.81;76.93;98764.22;4932606;29;20066;-76
2022/11/22 14:20:33;;;;;;;6.60;2.00;;;;;;;7.82;76.94;98765.06;4932273;29;20043;-76
2022/11/22 14:23:49;;;;;;;5.18;1.10;;;;;;;7.85;76.74;98759.66;4933098;29;20293;-75
2022/11/22 14:27:25;;;;;;;8.18;3.00;;;;;;;7.83;76.69;98761.53;4925493;29;20131;-76
2022/11/22 14:30:39;;;;;;;9.35;1.85;;;;;;;7.87;76.87;98766.38;4933094;29;20106;-77
2022/11/22 14:34:14;;;;;;;6.45;1.80;;;;;;;7.82;76.89;98770.28;4932878;29;20054;-76
2022/11/22 14:37:17;;;;;;;5.10;1.45;;;;;;;7.80;77.52;98777.34;4930617;29;20142;-76
2022/11/22 14:40:36;;;;;;;4.45;0.88;;;;;;;7.82;77.66;98776.31;4938757;29;20444;-76
2022/11/22 14:43:40;;;;;;;3.92;0.75;;;;;;;7.81;77.18;98779.00;4951629;29;20058;-77
2022/11/22 14:47:12;;;;;;;3.63;0.75;;;;;;;7.78;77.34;98782.63;4949806;28;20110;-77
2022/11/22 14:50:24;;;;;;;5.38;0.80;;;;;;;7.82;77.47;98783.28;4951152;29;20062;-76
2022/11/22 14:53:32;;;;;;;5.70;1.10;;;;;;;7.84;77.37;98778.78;4951561;29;20114;-74
2022/11/22 14:56:36;;;;;;;4.10;1.25;;;;;;;7.79;77.84;98762.69;4933319;29;20063;-77
2022/11/22 14:59:45;;;;;;;5.82;1.10;;;;;;;7.76;77.83;98770.69;4932762;29;20437;-77
2022/11/22 15:03:01;;;;;;;7.50;1.55;;;;;;;7.81;78.04;98760.78;4932762;29;20047;-76
2022/11/22 15:06:35;;;;;;;4.05;1.13;;;;;;;7.79;77.68;98776.50;4933076;29;20106;-76
2022/11/22 15:10:04;;;;;;;4.05;0.60;;;;;;;7.76;77.93;98770.69;4932235;29;20051;-76
2022/11/22 15:13:38;;;;;;;6.47;0.85;;;;;;;7.72;77.84;98771.81;4930982;29;20111;-81
2022/11/22 15:16:43;;;;;;;5.47;1.10;;;;;;;7.74;77.41;98769.94;4931567;29;20051;-72
2022/11/22 15:19:48;;;;;;;3.38;1.25;;;;;;;7.69;78.17;98754.69;4931973;29;20126;-77
2022/11/22 15:22:52;;;;;;;2.90;0.95;;;;;;;7.65;78.22;98771.41;4934889;29;20041;-76
2022/11/22 15:26:02;;;;;;;3.28;0.77;;;;;;;7.70;77.74;98777.13;4949916;29;20051;-77
2022/11/22 15:29:05;;;;;;;4.78;0.93;;;;;;;7.65;79.78;98787.00;4949847;29;20042;-77